sensor_id;sensor_type;location;lat;lon;timestamp;pressure;altitude;pressure_sealevel;temperature;humidity
28588;BME280;15787;49.662;10.162;2023-06-01T00:01:48;99342.19;;;13.22;80.17
28588;BME280;15787;49.662;10.162;2023-06-01T00:04:23;99342.59;;;13.20;80.43
28588;BME280;15787;49.662;10.162;2023-06-01T00:06:56;99334.06;;;13.11;80.90
28588;BME280;15787;49.662;10.162;2023-06-01T00:09:31;99330.78;;;12.97;81.11
28588;BME280;15787;49.662;10.162;2023-06-01T00:12:05;99339.28;;;13.09;81.15
28588;BME280;15787;49.662;10.162;2023-06-01T00:14:38;99336.91;;;12.92;81.37
28588;BME280;15787;49.662;10.162;2023-06-01T00:17:12;99341.66;;;12.95;81.47
28588;BME280;15787;49.662;10.162;2023-06-01T00:19:46;99328.97;;;12.90;81.57
28588;BME280;15787;49.662;10.162;2023-06-01T00:22:19;99331.44;;;12.88;81.49
28588;BME280;15787;49.662;10.162;2023-06-01T00:24:52;99331.25;;;12.79;81.94
28588;BME280;15787;49.662;10.162;2023-06-01T00:27:25;99325.81;;;12.72;82.13
28588;BME280;15787;49.662;10.162;2023-06-01T00:29:58;99327.22;;;12.64;82.31
28588;BME280;15787;49.662;10.162;2023-06-01T00:32:32;99326.28;;;12.71;82.29
28588;BME280;15787;49.662;10.162;2023-06-01T00:35:07;99327.69;;;12.62;82.93
28588;BME280;15787;49.662;10.162;2023-06-01T00:37:40;99331.94;;;12.51;82.91
28588;BME280;15787;49.662;10.162;2023-06-01T00:40:12;99324.53;;;12.44;82.68
28588;BME280;15787;49.662;10.162;2023-06-01T00:42:45;99324.88;;;12.30;82.86
28588;BME280;15787;49.662;10.162;2023-06-01T00:45:19;99324.78;;;12.34;83.11
28588;BME280;15787;49.662;10.162;2023-06-01T00:47:52;99327.75;;;11.91;84.88
28588;BME280;15787;49.662;10.162;2023-06-01T00:50:27;99326.06;;;12.13;84.19
28588;BME280;15787;49.662;10.162;2023-06-01T00:53:02;99322.91;;;12.11;83.62
28588;BME280;15787;49.662;10.162;2023-06-01T00:55:35;99322.59;;;12.25;83.18
28588;BME280;15787;49.662;10.162;2023-06-01T00:58:08;99328.56;;;11.91;83.76
28588;BME280;15787;49.662;10.162;2023-06-01T01:00:42;99325.25;;;11.96;84.32
28588;BME280;15787;49.662;10.162;2023-06-01T01:03:15;99313.53;;;12.01;84.31
28588;BME280;15787;49.662;10.162;2023-06-01T01:05:50;99319.88;;;11.86;84.10
28588;BME280;15787;49.662;10.162;2023-06-01T01:08:30;99329.63;;;11.78;84.49
28588;BME280;15787;49.662;10.162;2023-06-01T01:11:07;99325.69;;;11.75;84.87
28588;BME280;15787;49.662;10.162;2023-06-01T01:13:46;99327.13;;;11.83;84.68
28588;BME280;15787;49.662;10.162;2023-06-01T01:16:25;99326.84;;;11.78;85.24
28588;BME280;15787;49.662;10.162;2023-06-01T01:19:07;99323.34;;;11.74;85.61
28588;BME280;15787;49.662;10.162;2023-06-01T01:21:51;99326.50;;;11.56;85.65
28588;BME280;15787;49.662;10.162;2023-06-01T01:24:37;99330.28;;;11.66;85.34
28588;BME280;15787;49.662;10.162;2023-06-01T01:27:21;99329.00;;;11.51;86.24
28588;BME280;15787;49.662;10.162;2023-06-01T01:30:02;99325.25;;;11.37;86.56
28588;BME280;15787;49.662;10.162;2023-06-01T01:32:37;99325.84;;;11.49;86.51
28588;BME280;15787;49.662;10.162;2023-06-01T01:35:13;99318.81;;;11.40;86.84
28588;BME280;15787;49.662;10.162;2023-06-01T01:37:50;99316.66;;;11.28;86.92
28588;BME280;15787;49.662;10.162;2023-06-01T01:40:28;99320.88;;;11.36;87.19
28588;BME280;15787;49.662;10.162;2023-06-01T01:43:02;99311.63;;;11.20;87.94
28588;BME280;15787;49.662;10.162;2023-06-01T01:45:37;99308.50;;;10.75;89.00
28588;BME280;15787;49.662;10.162;2023-06-01T01:48:17;99308.53;;;10.71;90.07
28588;BME280;15787;49.662;10.162;2023-06-01T01:50:56;99312.72;;;10.83;90.39
28588;BME280;15787;49.662;10.162;2023-06-01T01:53:31;99316.94;;;11.14;88.60
28588;BME280;15787;49.662;10.162;2023-06-01T01:56:07;99305.09;;;11.07;88.09
28588;BME280;15787;49.662;10.162;2023-06-01T01:58:41;99305.03;;;10.91;88.67
28588;BME280;15787;49.662;10.162;2023-06-01T02:01:17;99302.97;;;10.71;89.23
28588;BME280;15787;49.662;10.162;2023-06-01T02:03:58;99299.81;;;10.69;90.64
28588;BME280;15787;49.662;10.162;2023-06-01T02:06:33;99302.22;;;10.91;89.89
28588;BME280;15787;49.662;10.162;2023-06-01T02:09:06;99307.13;;;10.83;89.65
28588;BME280;15787;49.662;10.162;2023-06-01T02:11:39;99296.75;;;10.84;88.70
28588;BME280;15787;49.662;10.162;2023-06-01T02:14:12;99297.19;;;10.82;88.71
28588;BME280;15787;49.662;10.162;2023-06-01T02:16:47;99296.16;;;10.72;89.29
28588;BME280;15787;49.662;10.162;2023-06-01T02:19:20;99295.19;;;10.83;88.71
28588;BME280;15787;49.662;10.162;2023-06-01T02:21:53;99289.50;;;10.86;88.49
28588;BME280;15787;49.662;10.162;2023-06-01T02:24:26;99294.63;;;10.91;88.36
28588;BME280;15787;49.662;10.162;2023-06-01T02:26:59;99295.94;;;10.83;88.48
28588;BME280;15787;49.662;10.162;2023-06-01T02:29:33;99299.50;;;10.64;88.23
28588;BME280;15787;49.662;10.162;2023-06-01T02:32:08;99291.84;;;10.68;88.83
28588;BME280;15787;49.662;10.162;2023-06-01T02:34:42;99294.56;;;10.71;88.21
28588;BME280;15787;49.662;10.162;2023-06-01T02:37:16;99285.59;;;10.60;88.22
28588;BME280;15787;49.662;10.162;2023-06-01T02:39:49;99289.91;;;10.65;87.88
28588;BME280;15787;49.662;10.162;2023-06-01T02:42:21;99292.03;;;10.57;87.71
28588;BME280;15787;49.662;10.162;2023-06-01T02:44:54;99290.94;;;10.51;87.59
28588;BME280;15787;49.662;10.162;2023-06-01T02:47:29;99290.75;;;10.39;87.79
28588;BME280;15787;49.662;10.162;2023-06-01T02:50:02;99280.88;;;10.34;88.60
28588;BME280;15787;49.662;10.162;2023-06-01T02:52:39;99282.13;;;10.30;88.82
28588;BME280;15787;49.662;10.162;2023-06-01T02:55:13;99284.38;;;10.38;88.64
28588;BME280;15787;49.662;10.162;2023-06-01T02:58:18;99288.81;;;10.36;88.62
28588;BME280;15787;49.662;10.162;2023-06-01T03:01:07;99290.38;;;10.13;89.03
28588;BME280;15787;49.662;10.162;2023-06-01T03:03:44;99280.66;;;9.95;90.90
28588;BME280;15787;49.662;10.162;2023-06-01T03:06:17;99280.81;;;10.11;91.04
28588;BME280;15787;49.662;10.162;2023-06-01T03:09:14;99282.16;;;9.99;90.07
28588;BME280;15787;49.662;10.162;2023-06-01T03:11:55;99280.66;;;9.95;90.64
28588;BME280;15787;49.662;10.162;2023-06-01T03:14:28;99275.34;;;9.77;91.38
28588;BME280;15787;49.662;10.162;2023-06-01T03:17:01;99284.28;;;9.92;91.25
28588;BME280;15787;49.662;10.162;2023-06-01T03:19:36;99281.41;;;9.99;90.27
28588;BME280;15787;49.662;10.162;2023-06-01T03:22:18;99289.78;;;9.99;90.12
28588;BME280;15787;49.662;10.162;2023-06-01T03:24:52;99289.84;;;9.92;90.38
28588;BME280;15787;49.662;10.162;2023-06-01T03:27:31;99292.91;;;9.74;90.68
28588;BME280;15787;49.662;10.162;2023-06-01T03:30:05;99285.34;;;9.75;90.91
28588;BME280;15787;49.662;10.162;2023-06-01T03:32:43;99287.53;;;9.30;92.83
28588;BME280;15787;49.662;10.162;2023-06-01T03:35:18;99296.84;;;9.46;93.19
28588;BME280;15787;49.662;10.162;2023-06-01T03:37:51;99287.31;;;9.74;92.40
28588;BME280;15787;49.662;10.162;2023-06-01T03:40:24;99292.16;;;9.70;91.44
28588;BME280;15787;49.662;10.162;2023-06-01T03:42:58;99297.16;;;9.82;90.91
28588;BME280;15787;49.662;10.162;2023-06-01T03:45:32;99296.16;;;9.69;90.09
28588;BME280;15787;49.662;10.162;2023-06-01T03:48:05;99290.72;;;9.89;89.72
28588;BME280;15787;49.662;10.162;2023-06-01T03:50:39;99287.72;;;9.76;89.56
28588;BME280;15787;49.662;10.162;2023-06-01T03:53:12;99295.31;;;9.72;89.69
28588;BME280;15787;49.662;10.162;2023-06-01T03:55:46;99288.94;;;9.72;89.56
28588;BME280;15787;49.662;10.162;2023-06-01T03:58:40;99294.59;;;9.68;89.14
28588;BME280;15787;49.662;10.162;2023-06-01T04:01:14;99295.44;;;9.65;90.05
28588;BME280;15787;49.662;10.162;2023-06-01T04:03:48;99297.31;;;9.72;90.19
28588;BME280;15787;49.662;10.162;2023-06-01T04:06:23;99298.53;;;9.71;90.31
28588;BME280;15787;49.662;10.162;2023-06-01T04:08:56;99295.75;;;9.71;90.78
28588;BME280;15787;49.662;10.162;2023-06-01T04:11:32;99309.00;;;9.63;91.11
28588;BME280;15787;49.662;10.162;2023-06-01T04:14:05;99301.47;;;9.60;91.47
28588;BME280;15787;49.662;10.162;2023-06-01T04:16:38;99299.41;;;9.64;91.76
28588;BME280;15787;49.662;10.162;2023-06-01T04:19:12;99301.66;;;9.76;92.15
28588;BME280;15787;49.662;10.162;2023-06-01T04:21:46;99297.28;;;9.75;91.70
28588;BME280;15787;49.662;10.162;2023-06-01T04:24:21;99301.13;;;9.85;92.00
28588;BME280;15787;49.662;10.162;2023-06-01T04:26:54;99302.50;;;9.73;91.70
28588;BME280;15787;49.662;10.162;2023-06-01T04:29:28;99294.44;;;9.79;91.97
28588;BME280;15787;49.662;10.162;2023-06-01T04:32:01;99299.31;;;9.71;92.44
28588;BME280;15787;49.662;10.162;2023-06-01T04:34:34;99294.63;;;9.65;93.33
28588;BME280;15787;49.662;10.162;2023-06-01T04:37:09;99302.19;;;9.34;94.91
28588;BME280;15787;49.662;10.162;2023-06-01T04:39:43;99309.03;;;9.29;97.17
28588;BME280;15787;49.662;10.162;2023-06-01T04:42:20;99313.00;;;9.28;97.68
28588;BME280;15787;49.662;10.162;2023-06-01T04:44:54;99303.22;;;9.47;98.49
28588;BME280;15787;49.662;10.162;2023-06-01T04:47:27;99299.75;;;9.70;98.03
28588;BME280;15787;49.662;10.162;2023-06-01T04:50:01;99308.47;;;9.72;96.98
28588;BME280;15787;49.662;10.162;2023-06-01T04:52:37;99306.91;;;9.97;97.02
28588;BME280;15787;49.662;10.162;2023-06-01T04:55:11;99307.53;;;9.82;97.21
28588;BME280;15787;49.662;10.162;2023-06-01T04:57:45;99312.31;;;10.11;97.20
28588;BME280;15787;49.662;10.162;2023-06-01T05:00:19;99306.72;;;10.11;97.47
28588;BME280;15787;49.662;10.162;2023-06-01T05:02:52;99309.25;;;10.29;98.20
28588;BME280;15787;49.662;10.162;2023-06-01T05:05:25;99303.09;;;10.64;97.11
28588;BME280;15787;49.662;10.162;2023-06-01T05:08:00;99308.97;;;10.70;96.56
28588;BME280;15787;49.662;10.162;2023-06-01T05:10:33;99300.88;;;10.75;96.64
28588;BME280;15787;49.662;10.162;2023-06-01T05:13:06;99296.75;;;10.84;96.87
28588;BME280;15787;49.662;10.162;2023-06-01T05:15:41;99293.47;;;10.89;96.26
28588;BME280;15787;49.662;10.162;2023-06-01T05:18:14;99303.16;;;11.04;96.09
28588;BME280;15787;49.662;10.162;2023-06-01T05:20:47;99294.72;;;11.07;96.19
28588;BME280;15787;49.662;10.162;2023-06-01T05:23:21;99292.66;;;11.31;95.55
28588;BME280;15787;49.662;10.162;2023-06-01T05:25:54;99299.09;;;11.48;95.17
28588;BME280;15787;49.662;10.162;2023-06-01T05:28:37;99301.03;;;11.51;95.20
28588;BME280;15787;49.662;10.162;2023-06-01T05:31:13;99299.56;;;11.62;94.92
28588;BME280;15787;49.662;10.162;2023-06-01T05:33:50;99311.31;;;11.93;93.87
28588;BME280;15787;49.662;10.162;2023-06-01T05:36:23;99307.69;;;12.12;93.49
28588;BME280;15787;49.662;10.162;2023-06-01T05:38:58;99302.81;;;12.32;92.77
28588;BME280;15787;49.662;10.162;2023-06-01T05:41:31;99302.72;;;12.52;91.67
28588;BME280;15787;49.662;10.162;2023-06-01T05:44:04;99306.66;;;12.54;91.67
28588;BME280;15787;49.662;10.162;2023-06-01T05:46:38;99302.53;;;12.59;91.46
28588;BME280;15787;49.662;10.162;2023-06-01T05:49:10;99301.56;;;12.82;91.19
28588;BME280;15787;49.662;10.162;2023-06-01T05:51:43;99305.94;;;12.99;90.74
28588;BME280;15787;49.662;10.162;2023-06-01T05:54:19;99313.34;;;13.21;89.14
28588;BME280;15787;49.662;10.162;2023-06-01T05:56:52;99308.03;;;13.40;88.67
28588;BME280;15787;49.662;10.162;2023-06-01T05:59:25;99309.66;;;13.66;87.53
28588;BME280;15787;49.662;10.162;2023-06-01T06:01:58;99314.44;;;14.07;86.45
28588;BME280;15787;49.662;10.162;2023-06-01T06:04:31;99314.09;;;14.05;86.27
28588;BME280;15787;49.662;10.162;2023-06-01T06:07:05;99310.75;;;14.35;85.12
28588;BME280;15787;49.662;10.162;2023-06-01T06:09:40;99313.31;;;14.54;83.38
28588;BME280;15787;49.662;10.162;2023-06-01T06:12:13;99307.78;;;14.76;82.59
28588;BME280;15787;49.662;10.162;2023-06-01T06:14:46;99306.44;;;14.81;81.37
28588;BME280;15787;49.662;10.162;2023-06-01T06:17:20;99305.91;;;15.07;81.00
28588;BME280;15787;49.662;10.162;2023-06-01T06:19:53;99303.16;;;15.16;79.97
28588;BME280;15787;49.662;10.162;2023-06-01T06:22:26;99299.50;;;15.29;78.65
28588;BME280;15787;49.662;10.162;2023-06-01T06:25:01;99303.38;;;15.44;78.38
28588;BME280;15787;49.662;10.162;2023-06-01T06:27:34;99305.44;;;15.65;78.50
28588;BME280;15787;49.662;10.162;2023-06-01T06:30:08;99296.81;;;15.90;76.67
28588;BME280;15787;49.662;10.162;2023-06-01T06:32:55;99306.59;;;16.07;75.89
28588;BME280;15787;49.662;10.162;2023-06-01T06:35:47;99299.47;;;16.55;74.96
28588;BME280;15787;49.662;10.162;2023-06-01T06:39:24;99309.25;;;16.81;73.99
28588;BME280;15787;49.662;10.162;2023-06-01T06:42:01;99309.91;;;17.03;73.76
28588;BME280;15787;49.662;10.162;2023-06-01T06:48:41;99305.06;;;17.40;72.34
28588;BME280;15787;49.662;10.162;2023-06-01T06:51:26;99300.34;;;17.74;70.44
28588;BME280;15787;49.662;10.162;2023-06-01T06:54:17;99299.56;;;17.82;71.20
28588;BME280;15787;49.662;10.162;2023-06-01T06:57:02;99310.31;;;18.44;67.73
28588;BME280;15787;49.662;10.162;2023-06-01T06:59:36;99310.81;;;18.75;66.69
28588;BME280;15787;49.662;10.162;2023-06-01T07:02:09;99310.75;;;18.84;66.30
28588;BME280;15787;49.662;10.162;2023-06-01T07:04:42;99304.25;;;18.92;67.54
28588;BME280;15787;49.662;10.162;2023-06-01T07:07:15;99322.19;;;18.89;66.77
28588;BME280;15787;49.662;10.162;2023-06-01T07:09:48;99315.94;;;19.09;65.35
28588;BME280;15787;49.662;10.162;2023-06-01T07:12:22;99315.09;;;19.41;64.37
28588;BME280;15787;49.662;10.162;2023-06-01T07:14:55;99299.53;;;19.75;64.01
28588;BME280;15787;49.662;10.162;2023-06-01T07:17:28;99308.97;;;19.58;63.60
28588;BME280;15787;49.662;10.162;2023-06-01T07:20:02;99306.94;;;20.16;58.54
28588;BME280;15787;49.662;10.162;2023-06-01T07:22:38;99306.44;;;19.89;60.12
28588;BME280;15787;49.662;10.162;2023-06-01T07:25:11;99309.28;;;20.03;59.82
28588;BME280;15787;49.662;10.162;2023-06-01T07:27:46;99306.75;;;20.35;58.60
28588;BME280;15787;49.662;10.162;2023-06-01T07:30:19;99305.06;;;20.43;58.68
28588;BME280;15787;49.662;10.162;2023-06-01T07:32:53;99302.47;;;20.94;57.31
28588;BME280;15787;49.662;10.162;2023-06-01T07:35:26;99318.59;;;20.68;57.21
28588;BME280;15787;49.662;10.162;2023-06-01T07:37:59;99315.47;;;21.21;57.21
28588;BME280;15787;49.662;10.162;2023-06-01T07:40:35;99316.13;;;21.10;54.43
28588;BME280;15787;49.662;10.162;2023-06-01T07:43:09;99310.06;;;21.03;55.65
28588;BME280;15787;49.662;10.162;2023-06-01T07:45:42;99323.25;;;20.86;56.13
28588;BME280;15787;49.662;10.162;2023-06-01T07:48:15;99315.59;;;21.52;54.74
28588;BME280;15787;49.662;10.162;2023-06-01T07:50:49;99309.13;;;21.52;55.32
28588;BME280;15787;49.662;10.162;2023-06-01T07:53:23;99309.59;;;21.24;56.48
28588;BME280;15787;49.662;10.162;2023-06-01T07:55:57;99301.81;;;21.65;55.81
28588;BME280;15787;49.662;10.162;2023-06-01T08:01:04;99298.00;;;22.25;55.20
28588;BME280;15787;49.662;10.162;2023-06-01T08:03:42;99300.72;;;22.77;53.76
28588;BME280;15787;49.662;10.162;2023-06-01T08:06:15;99301.84;;;22.53;54.96
28588;BME280;15787;49.662;10.162;2023-06-01T08:08:50;99295.59;;;22.49;54.59
28588;BME280;15787;49.662;10.162;2023-06-01T08:11:22;99296.53;;;22.67;54.01
28588;BME280;15787;49.662;10.162;2023-06-01T08:13:57;99297.78;;;23.08;53.64
28588;BME280;15787;49.662;10.162;2023-06-01T08:16:31;99289.25;;;23.83;51.65
28588;BME280;15787;49.662;10.162;2023-06-01T08:19:04;99295.44;;;23.71;52.76
28588;BME280;15787;49.662;10.162;2023-06-01T08:21:38;99287.69;;;23.88;51.88
28588;BME280;15787;49.662;10.162;2023-06-01T08:24:13;99297.09;;;23.29;52.42
28588;BME280;15787;49.662;10.162;2023-06-01T08:26:47;99285.88;;;23.79;51.16
28588;BME280;15787;49.662;10.162;2023-06-01T08:29:21;99276.03;;;23.69;52.18
28588;BME280;15787;49.662;10.162;2023-06-01T08:32:12;99280.94;;;23.85;51.62
28588;BME280;15787;49.662;10.162;2023-06-01T08:34:45;99278.91;;;24.36;50.53
28588;BME280;15787;49.662;10.162;2023-06-01T08:37:19;99282.72;;;23.61;51.01
28588;BME280;15787;49.662;10.162;2023-06-01T08:39:51;99271.91;;;24.42;51.04
28588;BME280;15787;49.662;10.162;2023-06-01T08:42:26;99267.00;;;24.26;49.04
28588;BME280;15787;49.662;10.162;2023-06-01T08:45:05;99272.72;;;24.43;49.22
28588;BME280;15787;49.662;10.162;2023-06-01T08:47:40;99271.09;;;25.55;47.71
28588;BME280;15787;49.662;10.162;2023-06-01T08:50:14;99265.13;;;24.57;49.28
28588;BME280;15787;49.662;10.162;2023-06-01T08:52:49;99269.16;;;25.17;48.44
28588;BME280;15787;49.662;10.162;2023-06-01T08:55:22;99268.94;;;25.03;48.72
28588;BME280;15787;49.662;10.162;2023-06-01T08:57:55;99264.03;;;24.98;48.26
28588;BME280;15787;49.662;10.162;2023-06-01T09:00:31;99262.28;;;24.62;47.67
28588;BME280;15787;49.662;10.162;2023-06-01T09:03:04;99260.44;;;24.70;48.40
28588;BME280;15787;49.662;10.162;2023-06-01T09:05:38;99251.56;;;24.96;46.79
28588;BME280;15787;49.662;10.162;2023-06-01T09:08:12;99250.56;;;24.77;45.96
28588;BME280;15787;49.662;10.162;2023-06-01T09:10:45;99249.75;;;24.93;47.71
28588;BME280;15787;49.662;10.162;2023-06-01T09:13:30;99253.25;;;25.73;46.34
28588;BME280;15787;49.662;10.162;2023-06-01T09:16:05;99256.41;;;25.75;46.73
28588;BME280;15787;49.662;10.162;2023-06-01T09:18:50;99251.16;;;26.14;44.33
28588;BME280;15787;49.662;10.162;2023-06-01T09:21:24;99257.34;;;27.02;43.70
28588;BME280;15787;49.662;10.162;2023-06-01T09:24:17;99251.34;;;26.22;44.90
28588;BME280;15787;49.662;10.162;2023-06-01T09:26:51;99251.16;;;26.68;44.45
28588;BME280;15787;49.662;10.162;2023-06-01T09:29:24;99243.19;;;27.10;44.40
28588;BME280;15787;49.662;10.162;2023-06-01T09:31:59;99245.13;;;26.48;44.42
28588;BME280;15787;49.662;10.162;2023-06-01T09:34:43;99243.94;;;26.38;44.58
28588;BME280;15787;49.662;10.162;2023-06-01T09:37:17;99235.78;;;25.82;44.02
28588;BME280;15787;49.662;10.162;2023-06-01T09:39:50;99237.13;;;26.11;42.56
28588;BME280;15787;49.662;10.162;2023-06-01T09:42:31;99232.03;;;25.98;43.18
28588;BME280;15787;49.662;10.162;2023-06-01T09:45:18;99234.75;;;27.17;41.41
28588;BME280;15787;49.662;10.162;2023-06-01T09:47:57;99230.19;;;27.46;42.47
28588;BME280;15787;49.662;10.162;2023-06-01T09:50:47;99236.09;;;27.53;43.22
28588;BME280;15787;49.662;10.162;2023-06-01T09:53:19;99230.81;;;27.57;42.17
28588;BME280;15787;49.662;10.162;2023-06-01T09:55:57;99222.94;;;27.02;41.65
28588;BME280;15787;49.662;10.162;2023-06-01T09:58:31;99222.81;;;27.32;41.93
28588;BME280;15787;49.662;10.162;2023-06-01T10:01:06;99222.28;;;26.66;42.04
28588;BME280;15787;49.662;10.162;2023-06-01T10:03:42;99221.31;;;27.07;42.46
28588;BME280;15787;49.662;10.162;2023-06-01T10:06:15;99219.63;;;27.73;43.03
28588;BME280;15787;49.662;10.162;2023-06-01T10:08:48;99219.59;;;28.23;40.24
28588;BME280;15787;49.662;10.162;2023-06-01T10:11:22;99210.03;;;28.47;41.14
28588;BME280;15787;49.662;10.162;2023-06-01T10:13:56;99217.84;;;28.33;41.48
28588;BME280;15787;49.662;10.162;2023-06-01T10:16:29;99218.84;;;28.36;39.09
28588;BME280;15787;49.662;10.162;2023-06-01T10:19:04;99213.53;;;27.95;39.68
28588;BME280;15787;49.662;10.162;2023-06-01T10:21:37;99204.00;;;28.63;39.87
28588;BME280;15787;49.662;10.162;2023-06-01T10:24:12;99210.72;;;29.18;38.79
28588;BME280;15787;49.662;10.162;2023-06-01T10:26:55;99203.22;;;28.50;36.26
28588;BME280;15787;49.662;10.162;2023-06-01T10:29:30;99197.72;;;29.51;37.90
28588;BME280;15787;49.662;10.162;2023-06-01T10:32:04;99200.91;;;29.01;41.55
28588;BME280;15787;49.662;10.162;2023-06-01T10:34:39;99190.31;;;28.96;38.21
28588;BME280;15787;49.662;10.162;2023-06-01T10:37:16;99198.84;;;28.30;38.50
28588;BME280;15787;49.662;10.162;2023-06-01T10:39:49;99182.00;;;29.05;39.83
28588;BME280;15787;49.662;10.162;2023-06-01T10:42:38;99193.53;;;28.21;38.20
28588;BME280;15787;49.662;10.162;2023-06-01T10:45:37;99186.16;;;29.17;36.65
28588;BME280;15787;49.662;10.162;2023-06-01T10:48:11;99193.00;;;27.91;38.10
28588;BME280;15787;49.662;10.162;2023-06-01T10:51:16;99179.81;;;28.01;38.12
28588;BME280;15787;49.662;10.162;2023-06-01T10:53:49;99170.69;;;29.07;36.99
28588;BME280;15787;49.662;10.162;2023-06-01T10:56:24;99175.13;;;29.55;36.28
28588;BME280;15787;49.662;10.162;2023-06-01T10:59:11;99168.47;;;29.60;37.06
28588;BME280;15787;49.662;10.162;2023-06-01T11:01:49;99166.63;;;28.90;37.93
28588;BME280;15787;49.662;10.162;2023-06-01T11:04:34;99169.31;;;28.88;37.79
28588;BME280;15787;49.662;10.162;2023-06-01T11:07:35;99166.19;;;28.59;37.00
28588;BME280;15787;49.662;10.162;2023-06-01T11:10:10;99157.78;;;29.48;35.32
28588;BME280;15787;49.662;10.162;2023-06-01T11:13:11;99155.03;;;29.42;36.37
28588;BME280;15787;49.662;10.162;2023-06-01T11:19:01;99144.41;;;29.37;39.04
28588;BME280;15787;49.662;10.162;2023-06-01T11:21:37;99142.03;;;29.15;37.21
28588;BME280;15787;49.662;10.162;2023-06-01T11:24:15;99138.03;;;28.71;37.84
28588;BME280;15787;49.662;10.162;2023-06-01T11:26:50;99138.94;;;29.13;38.79
28588;BME280;15787;49.662;10.162;2023-06-01T11:29:24;99143.59;;;29.16;37.68
28588;BME280;15787;49.662;10.162;2023-06-01T11:31:59;99144.75;;;28.47;36.77
28588;BME280;15787;49.662;10.162;2023-06-01T11:34:35;99134.38;;;29.64;37.72
28588;BME280;15787;49.662;10.162;2023-06-01T11:37:12;99122.50;;;30.94;37.20
28588;BME280;15787;49.662;10.162;2023-06-01T11:39:47;99131.97;;;29.21;35.64
28588;BME280;15787;49.662;10.162;2023-06-01T11:42:20;99120.34;;;30.02;36.62
28588;BME280;15787;49.662;10.162;2023-06-01T11:44:57;99126.88;;;29.14;36.64
28588;BME280;15787;49.662;10.162;2023-06-01T11:47:33;99116.88;;;29.62;35.14
28588;BME280;15787;49.662;10.162;2023-06-01T11:50:20;99103.41;;;30.47;36.79
28588;BME280;15787;49.662;10.162;2023-06-01T11:52:54;99115.34;;;31.38;36.00
28588;BME280;15787;49.662;10.162;2023-06-01T11:55:30;99112.53;;;30.10;35.68
28588;BME280;15787;49.662;10.162;2023-06-01T11:58:03;99110.72;;;30.48;36.51
28588;BME280;15787;49.662;10.162;2023-06-01T12:00:38;99102.94;;;29.87;36.45
28588;BME280;15787;49.662;10.162;2023-06-01T12:03:11;99102.97;;;28.86;36.62
28588;BME280;15787;49.662;10.162;2023-06-01T12:05:45;99105.88;;;28.46;36.88
28588;BME280;15787;49.662;10.162;2023-06-01T12:08:21;99101.31;;;29.24;36.85
28588;BME280;15787;49.662;10.162;2023-06-01T12:10:56;99108.16;;;30.17;36.96
28588;BME280;15787;49.662;10.162;2023-06-01T12:13:30;99095.69;;;29.52;36.82
28588;BME280;15787;49.662;10.162;2023-06-01T12:16:03;99098.72;;;29.88;37.29
28588;BME280;15787;49.662;10.162;2023-06-01T12:18:52;99101.03;;;29.89;35.06
28588;BME280;15787;49.662;10.162;2023-06-01T12:21:26;99102.81;;;30.21;36.08
28588;BME280;15787;49.662;10.162;2023-06-01T12:23:59;99086.97;;;30.99;35.30
28588;BME280;15787;49.662;10.162;2023-06-01T12:26:36;99090.38;;;31.56;34.14
28588;BME280;15787;49.662;10.162;2023-06-01T12:29:09;99082.28;;;29.34;35.99
28588;BME280;15787;49.662;10.162;2023-06-01T12:31:52;99083.88;;;29.09;35.32
28588;BME280;15787;49.662;10.162;2023-06-01T12:34:26;99075.47;;;29.86;36.63
28588;BME280;15787;49.662;10.162;2023-06-01T12:36:59;99080.75;;;29.95;34.46
28588;BME280;15787;49.662;10.162;2023-06-01T12:39:32;99076.19;;;29.99;35.66
28588;BME280;15787;49.662;10.162;2023-06-01T12:42:09;99077.47;;;29.16;34.53
28588;BME280;15787;49.662;10.162;2023-06-01T12:44:43;99080.91;;;29.89;35.64
28588;BME280;15787;49.662;10.162;2023-06-01T12:47:17;99076.63;;;30.11;35.84
28588;BME280;15787;49.662;10.162;2023-06-01T12:50:04;99074.41;;;29.55;35.41
28588;BME280;15787;49.662;10.162;2023-06-01T12:52:38;99068.97;;;30.42;34.29
28588;BME280;15787;49.662;10.162;2023-06-01T12:55:11;99069.19;;;29.87;35.10
28588;BME280;15787;49.662;10.162;2023-06-01T12:57:51;99060.84;;;29.22;35.84
28588;BME280;15787;49.662;10.162;2023-06-01T13:00:24;99055.72;;;30.39;33.37
28588;BME280;15787;49.662;10.162;2023-06-01T13:03:17;99064.44;;;30.54;33.72
28588;BME280;15787;49.662;10.162;2023-06-01T13:05:52;99058.31;;;30.57;33.91
28588;BME280;15787;49.662;10.162;2023-06-01T13:08:25;99054.31;;;30.68;33.95
28588;BME280;15787;49.662;10.162;2023-06-01T13:10:58;99052.38;;;30.63;33.80
28588;BME280;15787;49.662;10.162;2023-06-01T13:13:33;99050.41;;;30.50;34.63
28588;BME280;15787;49.662;10.162;2023-06-01T13:16:07;99053.63;;;29.70;34.93
28588;BME280;15787;49.662;10.162;2023-06-01T13:18:40;99048.28;;;30.94;33.57
28588;BME280;15787;49.662;10.162;2023-06-01T13:21:13;99041.84;;;30.73;35.03
28588;BME280;15787;49.662;10.162;2023-06-01T13:23:46;99036.25;;;30.32;33.82
28588;BME280;15787;49.662;10.162;2023-06-01T13:26:19;99036.50;;;30.13;34.15
28588;BME280;15787;49.662;10.162;2023-06-01T13:28:55;99037.00;;;30.60;34.82
28588;BME280;15787;49.662;10.162;2023-06-01T13:31:28;99032.78;;;30.69;34.72
28588;BME280;15787;49.662;10.162;2023-06-01T13:34:01;99025.94;;;30.87;34.46
28588;BME280;15787;49.662;10.162;2023-06-01T13:36:35;99036.88;;;31.40;35.18
28588;BME280;15787;49.662;10.162;2023-06-01T13:39:07;99033.00;;;31.30;34.67
28588;BME280;15787;49.662;10.162;2023-06-01T13:41:41;99029.41;;;31.74;33.61
28588;BME280;15787;49.662;10.162;2023-06-01T13:44:16;99021.56;;;30.43;33.05
28588;BME280;15787;49.662;10.162;2023-06-01T13:46:49;99022.16;;;30.49;34.39